createdAt,value
2018-02-19T00:00:09.739Z,64.45
2018-02-19T00:01:10.201Z,64.53
2018-02-19T00:02:10.673Z,64.50
2018-02-19T00:03:11.143Z,64.55
2018-02-19T00:04:11.607Z,64.63
2018-02-19T00:05:12.075Z,64.60
2018-02-19T00:06:12.541Z,64.53
2018-02-19T00:07:13.008Z,64.55
2018-02-19T00:08:13.469Z,64.50
2018-02-19T00:09:13.942Z,64.39
2018-02-19T00:10:14.408Z,64.34
2018-02-19T00:11:14.874Z,64.26
2018-02-19T00:12:15.337Z,64.23
2018-02-19T00:13:15.811Z,64.21
2018-02-19T00:14:16.277Z,64.21
2018-02-19T00:15:16.742Z,64.23
2018-02-19T00:16:17.210Z,64.28
2018-02-19T00:17:17.730Z,64.20
2018-02-19T00:18:18.144Z,64.28
2018-02-19T00:19:18.606Z,64.22
2018-02-19T00:20:19.077Z,64.25
2018-02-19T00:21:19.544Z,64.22
2018-02-19T00:22:20.012Z,64.30
2018-02-19T00:23:20.473Z,64.22
2018-02-19T00:24:20.944Z,64.27
2018-02-19T00:25:21.412Z,64.22
2018-02-19T00:26:21.878Z,64.19
2018-02-19T00:27:22.396Z,64.21
2018-02-19T00:28:22.812Z,64.27
2018-02-19T00:29:23.279Z,64.26
2018-02-19T00:30:23.740Z,64.26
2018-02-19T00:31:24.214Z,64.26
2018-02-19T00:32:24.682Z,64.15
2018-02-19T00:33:25.145Z,64.16
2018-02-19T00:34:25.607Z,63.99
2018-02-19T00:35:26.078Z,64.13
2018-02-19T00:36:26.546Z,64.10
2018-02-19T00:37:27.063Z,64.07
2018-02-19T00:38:27.480Z,64.07
2018-02-19T00:39:27.946Z,64.12
2018-02-19T00:40:28.412Z,64.02
2018-02-19T00:41:28.874Z,64.04
2018-02-19T00:42:29.397Z,64.09
2018-02-19T00:43:29.812Z,64.04
2018-02-19T00:44:30.280Z,64.04
2018-02-19T00:45:30.745Z,64.11
2018-02-19T00:46:31.212Z,64.14
2018-02-19T00:47:31.680Z,64.22
2018-02-19T00:48:32.145Z,64.27
2018-02-19T00:49:32.613Z,64.37
2018-02-19T00:50:33.080Z,64.35
2018-02-19T00:51:33.547Z,64.32
2018-02-19T00:52:34.007Z,64.40
2018-02-19T00:54:34.945Z,64.45
2018-02-19T00:55:35.410Z,64.39
2018-02-19T00:56:35.879Z,64.26
2018-02-19T00:57:36.397Z,64.18
2018-02-19T00:58:36.812Z,64.26
2018-02-19T00:59:37.275Z,64.23
2018-02-19T01:00:37.744Z,64.10
2018-02-19T01:02:38.678Z,64.18
2018-02-19T01:03:39.139Z,64.25
2018-02-19T01:04:39.611Z,64.23
2018-02-19T01:05:40.077Z,64.23
2018-02-19T01:07:41.061Z,64.15
2018-02-19T01:08:41.475Z,64.12
2018-02-19T01:09:41.943Z,64.07
2018-02-19T01:10:42.405Z,64.01
2018-02-19T01:11:42.876Z,63.98
2018-02-19T01:12:43.394Z,64.09
2018-02-19T01:13:43.809Z,64.01
2018-02-19T01:14:44.268Z,64.00
2018-02-19T01:15:44.745Z,64.08
2018-02-19T01:16:45.206Z,64.05
2018-02-19T01:18:46.141Z,64.05
2018-02-19T01:19:46.606Z,64.00
2018-02-19T01:20:47.073Z,64.00
2018-02-19T01:21:47.539Z,64.00
2018-02-19T01:22:48.007Z,63.99
2018-02-19T01:23:48.473Z,64.07
2018-02-19T01:24:48.937Z,64.12
2018-02-19T01:25:49.400Z,64.15
2018-02-19T01:26:49.874Z,64.25
2018-02-19T01:27:50.336Z,64.33
2018-02-19T01:28:50.802Z,64.38
2018-02-19T01:29:51.271Z,64.43
2018-02-19T01:30:51.736Z,64.54
2018-02-19T01:31:52.201Z,64.54
2018-02-19T01:32:52.713Z,64.61
2018-02-19T01:33:53.135Z,64.56
2018-02-19T01:34:53.600Z,64.61
2018-02-19T01:35:54.065Z,64.66
2018-02-19T01:36:54.530Z,64.77
2018-02-19T01:38:06.680Z,64.87
2018-02-19T01:38:55.464Z,64.92
2018-02-19T01:39:55.931Z,64.97
2018-02-19T01:40:56.398Z,65.05
2018-02-19T01:41:56.863Z,65.03
2018-02-19T01:43:57.788Z,65.02
2018-02-19T01:44:58.262Z,65.00
2018-02-19T01:47:59.658Z,65.07
2018-02-19T01:49:00.126Z,65.12
2018-02-19T01:50:00.590Z,65.15
2018-02-19T01:52:01.525Z,65.12
2018-02-19T01:53:01.990Z,65.15
2018-02-19T01:54:02.456Z,65.28
2018-02-19T01:55:02.917Z,65.28
2018-02-19T01:56:03.389Z,65.27
2018-02-19T01:57:03.855Z,65.25
2018-02-19T01:58:04.369Z,65.20
2018-02-19T01:59:04.786Z,65.17
2018-02-19T02:00:05.252Z,64.99
2018-02-19T02:01:05.718Z,64.91
2018-02-19T02:02:06.178Z,64.91
2018-02-19T02:03:06.703Z,64.96
2018-02-19T02:04:07.114Z,64.88
2018-02-19T02:05:07.582Z,64.88
2018-02-19T02:06:08.044Z,64.75
2018-02-19T02:07:08.515Z,64.56
2018-02-19T02:08:08.980Z,64.64
2018-02-19T02:09:09.447Z,64.56
2018-02-19T02:10:09.912Z,64.48
2018-02-19T02:11:10.378Z,64.33
2018-02-19T02:12:10.845Z,64.27
2018-02-19T02:13:11.356Z,64.17
2018-02-19T02:14:11.778Z,64.06
2018-02-19T02:16:12.706Z,64.14
2018-02-19T02:17:13.171Z,64.14
2018-02-19T02:19:14.109Z,64.05
2018-02-19T02:20:14.572Z,63.97
2018-02-19T02:21:15.091Z,63.87
2018-02-19T02:22:15.505Z,63.79
2018-02-19T02:23:15.972Z,63.81
2018-02-19T02:24:16.430Z,63.78
2018-02-19T02:25:16.904Z,63.81
2018-02-19T02:26:17.367Z,63.86
2018-02-19T02:27:17.836Z,63.94
2018-02-19T02:28:18.344Z,63.99
2018-02-19T02:29:18.766Z,63.99
2018-02-19T02:30:19.232Z,64.10
2018-02-19T02:31:19.697Z,63.99
2018-02-19T02:32:20.163Z,64.07
2018-02-19T02:33:20.629Z,63.99
2018-02-19T02:34:21.099Z,63.99
2018-02-19T02:35:21.555Z,63.96
2018-02-19T02:36:22.030Z,63.96
2018-02-19T02:37:22.494Z,63.91
2018-02-19T02:38:23.010Z,63.93
2018-02-19T02:39:23.426Z,63.90
2018-02-19T02:40:23.890Z,63.83
2018-02-19T02:41:24.357Z,63.72
2018-02-19T02:42:24.822Z,63.59
2018-02-19T02:43:25.340Z,63.59
2018-02-19T02:44:25.754Z,63.53
2018-02-19T02:45:26.220Z,63.56
2018-02-19T02:46:26.683Z,63.61
2018-02-19T02:47:27.152Z,63.66
2018-02-19T02:48:27.617Z,63.69
2018-02-19T02:49:28.098Z,63.79
2018-02-19T02:50:28.549Z,63.84
2018-02-19T02:51:29.015Z,63.76
2018-02-19T02:52:29.480Z,63.82
2018-02-19T02:53:29.946Z,63.79
2018-02-19T02:54:30.411Z,63.89
2018-02-19T02:55:30.879Z,63.86
2018-02-19T02:56:31.343Z,63.86
2018-02-19T02:57:31.804Z,63.89
2018-02-19T02:58:32.277Z,63.89
2018-02-19T03:00:33.213Z,64.02
2018-02-19T03:01:33.673Z,64.01
2018-02-19T03:02:34.142Z,64.07
2018-02-19T03:03:34.605Z,64.15
2018-02-19T03:04:35.064Z,64.15
2018-02-19T03:06:36.004Z,64.20
2018-02-19T03:07:36.468Z,64.23
2018-02-19T03:08:36.978Z,64.25
2018-02-19T03:09:37.397Z,64.27
2018-02-19T03:10:37.864Z,64.17
2018-02-19T03:11:38.330Z,64.17
2018-02-19T03:12:38.796Z,64.14
2018-02-19T03:13:39.261Z,64.22
2018-02-19T03:14:39.727Z,64.30
2018-02-19T03:15:40.186Z,64.19
2018-02-19T03:16:40.657Z,64.22
2018-02-19T03:17:41.125Z,64.30
2018-02-19T03:18:41.590Z,64.24
2018-02-19T03:19:42.049Z,64.27
2018-02-19T03:20:42.519Z,64.32
2018-02-19T03:21:42.988Z,64.29
2018-02-19T03:22:43.452Z,64.40
2018-02-19T03:23:43.954Z,64.45
2018-02-19T03:24:44.382Z,64.42
2018-02-19T03:26:45.310Z,64.39
2018-02-19T03:27:45.780Z,64.39
2018-02-19T03:28:46.246Z,64.47
2018-02-19T03:30:47.172Z,64.55
2018-02-19T03:31:47.643Z,64.68
2018-02-19T03:32:48.106Z,64.70
2018-02-19T03:33:48.624Z,64.73
2018-02-19T03:34:49.040Z,64.62
2018-02-19T03:35:49.504Z,64.81
2018-02-19T03:36:49.969Z,64.65
2018-02-19T03:37:50.432Z,64.78
2018-02-19T03:38:50.901Z,64.75
2018-02-19T03:39:51.372Z,64.70
2018-02-19T03:40:51.833Z,64.73
2018-02-19T03:41:52.304Z,64.78
2018-02-19T03:42:52.763Z,64.85
2018-02-19T03:43:53.230Z,64.86
2018-02-19T03:44:53.693Z,64.90
2018-02-19T03:46:54.626Z,64.80
2018-02-19T03:47:55.090Z,64.78
2018-02-19T03:48:55.601Z,64.80
2018-02-19T03:49:56.022Z,64.82
2018-02-19T03:51:56.952Z,64.85
2018-02-19T03:52:57.416Z,64.80
2018-02-19T03:53:57.882Z,64.85
2018-02-19T03:54:58.350Z,64.82
2018-02-19T03:55:58.812Z,64.85
2018-02-19T03:56:59.279Z,64.82
2018-02-19T03:57:59.745Z,64.84
2018-02-19T03:59:00.212Z,64.90
2018-02-19T04:00:00.673Z,64.87
2018-02-19T04:01:01.142Z,64.82
2018-02-19T04:03:02.073Z,64.81
2018-02-19T04:04:02.541Z,64.84
2018-02-19T04:05:03.004Z,64.82
2018-02-19T04:06:03.470Z,64.71
2018-02-19T04:07:03.934Z,64.71
2018-02-19T04:08:04.396Z,64.68
2018-02-19T04:09:04.866Z,64.58
2018-02-19T04:10:05.332Z,64.60
2018-02-19T04:11:05.797Z,64.58
2018-02-19T04:12:06.262Z,64.57
2018-02-19T04:13:06.727Z,64.42
2018-02-19T04:14:07.243Z,64.49
2018-02-19T04:15:07.658Z,64.59
2018-02-19T04:16:08.123Z,64.59
2018-02-19T04:17:08.591Z,64.64
2018-02-19T04:18:09.054Z,64.59
2018-02-19T04:19:09.515Z,64.54
2018-02-19T04:20:09.985Z,64.54
2018-02-19T04:21:10.450Z,64.54
2018-02-19T04:22:10.915Z,64.46
2018-02-19T04:23:11.382Z,64.48
2018-02-19T04:24:11.896Z,64.48
2018-02-19T04:25:12.312Z,64.48
2018-02-19T04:26:12.773Z,64.58
2018-02-19T04:27:13.238Z,64.50
2018-02-19T04:28:13.704Z,64.61
2018-02-19T04:29:14.166Z,64.68
2018-02-19T04:30:14.633Z,64.68
2018-02-19T04:31:15.100Z,64.79
2018-02-19T04:32:15.565Z,64.76
2018-02-19T04:33:16.029Z,64.78
2018-02-19T04:34:16.549Z,64.89
2018-02-19T04:35:16.961Z,64.86
2018-02-19T04:36:17.430Z,64.91
2018-02-19T04:37:17.896Z,64.88
2018-02-19T04:38:18.361Z,64.94
2018-02-19T04:40:30.827Z,64.96
2018-02-19T04:42:20.225Z,65.02
2018-02-19T04:44:21.161Z,65.09
2018-02-19T04:45:33.862Z,65.09
2018-02-19T04:46:22.085Z,65.04
2018-02-19T04:47:22.549Z,65.09
2018-02-19T04:48:23.012Z,65.04
2018-02-19T04:49:23.479Z,65.14
2018-02-19T04:50:23.946Z,65.16
2018-02-19T04:51:24.411Z,65.24
2018-02-19T04:52:24.874Z,65.27
2018-02-19T04:53:25.340Z,65.32
2018-02-19T04:54:25.801Z,65.34
2018-02-19T04:55:26.271Z,65.42
2018-02-19T04:56:26.738Z,65.37
2018-02-19T04:58:27.666Z,65.40
2018-02-19T04:59:28.128Z,65.49
2018-02-19T05:00:28.598Z,65.52
2018-02-19T05:01:29.063Z,65.52
2018-02-19T05:02:29.531Z,65.55
2018-02-19T05:04:30.460Z,65.62
2018-02-19T05:05:30.974Z,65.67
2018-02-19T05:06:31.384Z,65.75
2018-02-19T05:09:32.786Z,65.75
2018-02-19T05:10:33.296Z,65.75
2018-02-19T05:11:33.721Z,65.75
2018-02-19T05:12:34.181Z,65.72
2018-02-19T05:13:34.648Z,65.70
2018-02-19T05:14:35.110Z,65.75
2018-02-19T05:15:35.626Z,65.72
2018-02-19T05:16:36.041Z,65.77
2018-02-19T05:17:36.501Z,65.80
2018-02-19T05:18:36.971Z,65.85
2018-02-19T05:19:37.436Z,65.80
2018-02-19T05:20:37.903Z,65.85
2018-02-19T05:21:38.364Z,65.87
2018-02-19T05:22:38.831Z,65.80
2018-02-19T05:23:39.291Z,65.85
2018-02-19T05:24:39.761Z,65.79
2018-02-19T05:25:40.226Z,65.89
2018-02-19T05:26:40.690Z,65.92
2018-02-19T05:27:41.157Z,65.97
2018-02-19T05:28:41.620Z,66.00
2018-02-19T05:29:42.081Z,66.02
2018-02-19T05:30:53.884Z,66.00
2018-02-19T05:31:43.017Z,66.00
2018-02-19T05:33:43.940Z,65.95
2018-02-19T05:34:44.413Z,66.00
2018-02-19T05:35:44.930Z,65.97
2018-02-19T05:36:45.343Z,66.04
2018-02-19T05:37:45.806Z,66.10
2018-02-19T05:38:46.274Z,66.17
2018-02-19T05:40:47.258Z,66.20
2018-02-19T05:42:48.129Z,66.15
2018-02-19T05:43:48.598Z,66.12
2018-02-19T05:44:49.062Z,66.15
2018-02-19T05:45:49.575Z,66.12
2018-02-19T05:46:49.992Z,66.17
2018-02-19T05:47:50.457Z,66.27
2018-02-19T05:48:50.924Z,66.42
2018-02-19T05:49:51.384Z,66.45
2018-02-19T05:50:51.854Z,66.53
2018-02-19T05:51:52.319Z,66.55
2018-02-19T05:52:52.785Z,66.47
2018-02-19T05:54:53.713Z,66.45
2018-02-19T05:55:54.228Z,66.39
2018-02-19T05:56:54.645Z,66.45
2018-02-19T05:57:55.112Z,66.52
2018-02-19T05:58:55.574Z,66.58
2018-02-19T05:59:56.035Z,66.70
2018-02-19T06:00:56.557Z,66.70
2018-02-19T06:01:56.973Z,66.68
2018-02-19T06:02:57.435Z,66.60
2018-02-19T06:03:57.895Z,66.49
2018-02-19T06:04:58.367Z,66.44
2018-02-19T06:05:58.833Z,66.39
2018-02-19T06:06:59.300Z,66.37
2018-02-19T06:07:59.761Z,66.37
2018-02-19T06:09:00.227Z,66.31
2018-02-19T06:10:00.691Z,66.29
2018-02-19T06:11:01.203Z,66.34
2018-02-19T06:12:01.622Z,66.34
2018-02-19T06:13:02.086Z,66.34
2018-02-19T06:14:02.551Z,66.37
2018-02-19T06:15:03.016Z,66.49
2018-02-19T06:16:03.481Z,66.49
2018-02-19T06:17:03.947Z,66.54
2018-02-19T06:18:04.411Z,66.57
2018-02-19T06:19:04.876Z,66.51
2018-02-19T06:20:05.379Z,66.46
2018-02-19T06:21:05.807Z,66.54
2018-02-19T06:22:06.268Z,66.62
2018-02-19T06:23:06.738Z,66.67
2018-02-19T06:24:07.202Z,66.67
2018-02-19T06:25:07.673Z,66.77
2018-02-19T06:26:08.179Z,66.82
2018-02-19T06:27:08.600Z,66.85
2018-02-19T06:28:09.063Z,66.81
2018-02-19T06:29:09.530Z,66.88
2018-02-19T06:30:09.991Z,66.92
2018-02-19T06:31:10.509Z,67.00
2018-02-19T06:32:10.923Z,66.98
2018-02-19T06:33:11.389Z,66.99
2018-02-19T06:34:11.848Z,67.07
2018-02-19T06:35:12.319Z,67.15
2018-02-19T06:36:12.784Z,67.21
2018-02-19T06:37:13.250Z,67.37
2018-02-19T06:38:13.715Z,67.43
2018-02-19T06:39:14.180Z,67.54
2018-02-19T06:40:14.647Z,67.63
2018-02-19T06:41:15.107Z,67.79
2018-02-19T06:42:15.576Z,67.83
2018-02-19T06:43:16.043Z,67.81
2018-02-19T06:44:16.508Z,67.93
2018-02-19T06:45:16.969Z,67.94
2018-02-19T06:46:17.439Z,68.05
2018-02-19T06:47:17.904Z,67.99
2018-02-19T06:48:18.370Z,68.25
2018-02-19T06:49:18.837Z,68.24
2018-02-19T06:50:19.301Z,68.28
2018-02-19T06:51:19.767Z,68.24
2018-02-19T06:52:20.228Z,68.41
2018-02-19T06:54:21.213Z,68.36
2018-02-19T06:55:21.631Z,68.32
2018-02-19T06:57:22.564Z,68.41
2018-02-19T06:59:23.495Z,68.46
2018-02-19T07:00:23.960Z,68.42
2018-02-19T07:01:24.477Z,68.54
2018-02-19T07:02:24.899Z,68.51
2018-02-19T07:03:25.354Z,68.40
2018-02-19T07:04:25.826Z,68.54
2018-02-19T07:05:26.296Z,68.50
2018-02-19T07:06:26.807Z,68.65
2018-02-19T07:07:27.225Z,68.54
2018-02-19T07:08:27.694Z,68.63
2018-02-19T07:09:28.158Z,68.82
2018-02-19T07:10:28.629Z,68.94
2018-02-19T07:11:29.140Z,68.80
2018-02-19T07:12:29.555Z,68.79
2018-02-19T07:13:30.025Z,68.74
2018-02-19T07:14:30.503Z,68.63
2018-02-19T07:15:30.958Z,68.72
2018-02-19T07:16:43.061Z,68.71
2018-02-19T07:17:31.893Z,68.65
2018-02-19T07:18:32.358Z,68.52
2018-02-19T07:19:32.822Z,68.66
2018-02-19T07:20:33.294Z,68.60
2018-02-19T07:21:33.815Z,68.59
2018-02-19T07:22:34.226Z,68.67
2018-02-19T07:23:34.695Z,68.53
2018-02-19T07:24:35.165Z,68.52
2018-02-19T07:25:35.629Z,68.18
2018-02-19T07:26:48.030Z,67.74
2018-02-19T07:27:36.567Z,67.91
2018-02-19T07:28:37.030Z,68.06
2018-02-19T07:29:37.502Z,67.75
2018-02-19T07:30:37.967Z,67.63
2018-02-19T07:31:38.487Z,67.29
2018-02-19T07:32:38.898Z,67.38
2018-02-19T07:33:39.372Z,67.51
2018-02-19T07:34:39.840Z,67.31
2018-02-19T07:35:40.310Z,67.22
2018-02-19T07:36:40.778Z,66.75
2018-02-19T07:37:41.245Z,66.48
2018-02-19T07:38:41.714Z,66.39
2018-02-19T07:39:42.175Z,66.23
2018-02-19T07:40:42.651Z,65.90
2018-02-19T07:41:55.056Z,65.73
2018-02-19T07:42:43.584Z,65.41
2018-02-19T07:44:44.522Z,65.07
2018-02-19T07:45:44.990Z,64.83
2018-02-19T07:47:45.929Z,64.30
2018-02-19T07:48:46.394Z,63.94
2018-02-19T07:50:47.335Z,63.39
2018-02-19T07:51:47.855Z,63.08
2018-02-19T07:52:48.274Z,62.88
2018-02-19T07:53:48.746Z,62.52
2018-02-19T07:54:49.207Z,62.34
2018-02-19T07:55:49.684Z,62.20
2018-02-19T07:56:50.203Z,61.91
2018-02-19T07:57:50.622Z,61.60
2018-02-19T07:58:51.090Z,61.34
2018-02-19T07:59:51.563Z,61.00
2018-02-19T08:00:52.031Z,60.88
2018-02-19T08:01:52.497Z,60.57
2018-02-19T08:02:52.968Z,60.39
2018-02-19T08:03:53.443Z,60.24
2018-02-19T08:04:53.909Z,60.14
2018-02-19T08:05:54.378Z,60.08
2018-02-19T08:06:54.848Z,59.79
2018-02-19T08:07:55.314Z,59.72
2018-02-19T08:08:55.789Z,59.62
2018-02-19T08:09:56.260Z,59.36
2018-02-19T08:10:56.732Z,59.15
2018-02-19T08:11:57.251Z,59.05
2018-02-19T08:12:57.672Z,58.76
2018-02-19T08:13:58.142Z,58.64
2018-02-19T08:14:58.608Z,58.43
2018-02-19T08:15:59.086Z,58.27
2018-02-19T08:16:59.606Z,58.15
2018-02-19T08:18:00.027Z,58.02
2018-02-19T08:20:00.966Z,57.99
2018-02-19T08:21:01.441Z,57.95
2018-02-19T08:22:01.961Z,57.88
2018-02-19T08:23:02.383Z,57.67
2018-02-19T08:24:02.853Z,57.39
2018-02-19T08:25:03.322Z,57.47
2018-02-19T08:26:03.791Z,57.31
2018-02-19T08:27:04.318Z,57.29
2018-02-19T08:28:04.739Z,57.08
2018-02-19T08:29:05.213Z,56.98
2018-02-19T08:30:05.681Z,56.79
2018-02-19T08:31:06.154Z,56.75
2018-02-19T08:32:06.625Z,56.75
2018-02-19T08:33:07.095Z,56.77
2018-02-19T08:34:07.570Z,56.55
2018-02-19T08:35:08.041Z,56.28
2018-02-19T08:37:08.980Z,55.87
2018-02-19T08:38:09.459Z,56.23
2018-02-19T08:39:09.928Z,56.15
2018-02-19T08:40:10.402Z,56.14
2018-02-19T08:41:10.876Z,56.04
2018-02-19T08:42:11.399Z,55.81
2018-02-19T08:43:11.821Z,55.97
2018-02-19T08:44:12.294Z,55.58
2018-02-19T08:45:12.776Z,55.50
2018-02-19T08:46:13.234Z,55.51
2018-02-19T08:47:13.713Z,55.49
2018-02-19T08:48:14.185Z,55.70
2018-02-19T08:49:14.654Z,55.60
2018-02-19T08:50:15.126Z,55.17
2018-02-19T08:51:15.602Z,55.07
2018-02-19T08:52:16.078Z,54.90
2018-02-19T08:53:16.563Z,54.59
2018-02-19T08:54:17.024Z,54.13
2018-02-19T08:55:17.497Z,54.38
2018-02-19T08:56:17.968Z,53.98
2018-02-19T08:57:18.445Z,53.69
2018-02-19T08:58:18.915Z,53.41
2018-02-19T08:59:19.385Z,53.39
2018-02-19T09:00:19.864Z,53.07
2018-02-19T09:03:21.336Z,52.87
2018-02-19T09:04:21.758Z,52.79
2018-02-19T09:05:22.234Z,52.80
2018-02-19T09:06:22.706Z,52.78
2018-02-19T09:07:23.175Z,52.38
2018-02-19T09:08:23.656Z,52.30
2018-02-19T09:09:24.130Z,52.31
2018-02-19T09:10:24.604Z,51.99
2018-02-19T09:12:25.551Z,51.89
2018-02-19T09:13:26.076Z,51.81
2018-02-19T09:15:26.974Z,51.30
2018-02-19T09:16:27.449Z,51.16
2018-02-19T09:17:27.972Z,51.08
2018-02-19T09:18:28.444Z,50.85
2018-02-19T09:19:28.871Z,50.65
2018-02-19T09:20:29.347Z,50.66
2018-02-19T09:21:29.820Z,50.43
2018-02-19T09:22:30.296Z,50.38
2018-02-19T09:23:30.770Z,50.08
2018-02-19T09:24:31.259Z,49.97
2018-02-19T09:25:31.714Z,49.71
2018-02-19T09:26:32.196Z,49.63
2018-02-19T09:27:32.669Z,49.46
2018-02-19T09:29:33.663Z,49.08
2018-02-19T09:30:34.095Z,49.00
2018-02-19T09:31:34.567Z,48.89
2018-02-19T09:32:35.045Z,48.75
2018-02-19T09:33:35.517Z,48.60
2018-02-19T09:34:36.039Z,48.52
2018-02-19T09:35:36.466Z,48.44
2018-02-19T09:36:36.943Z,48.32
2018-02-19T09:37:37.416Z,48.06
2018-02-19T09:38:37.893Z,47.95
2018-02-19T09:39:38.370Z,47.83
2018-02-19T09:40:38.842Z,47.72
2018-02-19T09:41:39.318Z,47.51
2018-02-19T09:42:39.787Z,47.52
2018-02-19T09:44:40.793Z,47.39
2018-02-19T09:45:41.220Z,47.24
2018-02-19T09:46:41.691Z,47.19
2018-02-19T09:47:42.168Z,47.01
2018-02-19T09:48:42.646Z,46.93
2018-02-19T09:49:43.174Z,47.00
2018-02-19T09:51:44.072Z,46.83
2018-02-19T09:52:44.548Z,46.84
2018-02-19T09:53:45.018Z,46.66
2018-02-19T09:54:45.550Z,46.42
2018-02-19T09:55:45.975Z,46.24
2018-02-19T09:56:46.450Z,46.03
2018-02-19T09:57:46.924Z,46.04
2018-02-19T09:58:47.402Z,45.92
2018-02-19T09:59:47.931Z,45.74
2018-02-19T10:00:48.353Z,45.59
2018-02-19T10:01:48.829Z,45.38
2018-02-19T10:02:49.302Z,45.27
2018-02-19T10:03:49.779Z,45.24
2018-02-19T10:05:02.137Z,45.12
2018-02-19T10:05:50.727Z,45.00
2018-02-19T10:06:51.202Z,45.23
2018-02-19T10:07:51.676Z,44.96
2018-02-19T10:08:52.150Z,45.13
2018-02-19T10:09:52.676Z,45.51
2018-02-19T10:10:53.096Z,45.64
2018-02-19T10:11:53.572Z,45.56
2018-02-19T10:12:54.045Z,45.41
2018-02-19T10:13:54.519Z,45.20
2018-02-19T10:14:55.042Z,44.95
2018-02-19T10:15:55.462Z,44.80
2018-02-19T10:16:55.936Z,44.84
2018-02-19T10:17:56.409Z,44.69
2018-02-19T10:18:56.880Z,44.31
2018-02-19T10:19:57.354Z,44.29
2018-02-19T10:20:57.823Z,44.10
2018-02-19T10:21:58.302Z,43.99
2018-02-19T10:22:58.769Z,43.64
2018-02-19T10:23:59.233Z,43.33
2018-02-19T10:25:11.191Z,43.30
2018-02-19T10:26:00.189Z,43.09
2018-02-19T10:28:01.126Z,43.17
2018-02-19T10:29:01.600Z,42.79
2018-02-19T10:30:02.071Z,43.05
2018-02-19T10:31:02.538Z,43.16
2018-02-19T10:32:03.013Z,42.68
2018-02-19T10:33:03.487Z,43.21
2018-02-19T10:34:03.958Z,42.99
2018-02-19T10:35:04.426Z,42.84
2018-02-19T10:36:04.901Z,42.91
2018-02-19T10:37:05.371Z,42.73
2018-02-19T10:38:05.850Z,42.34
2018-02-19T10:39:06.321Z,42.29
2018-02-19T10:40:06.789Z,42.43
2018-02-19T10:41:07.262Z,42.24
2018-02-19T10:42:07.729Z,41.93
2018-02-19T10:43:08.206Z,41.81
2018-02-19T10:44:08.678Z,41.81
2018-02-19T10:45:09.203Z,41.82
2018-02-19T10:46:09.620Z,41.18
2018-02-19T10:47:24.357Z,41.26
2018-02-19T10:48:24.834Z,41.00
2018-02-19T10:49:25.302Z,41.01
2018-02-19T10:50:25.776Z,40.66
2018-02-19T10:51:26.243Z,40.67
2018-02-19T10:52:26.722Z,40.39
2018-02-19T10:53:27.197Z,40.39
2018-02-19T10:54:27.672Z,40.14
2018-02-19T10:55:28.147Z,39.95
2018-02-19T10:56:28.619Z,39.80
2018-02-19T10:57:29.094Z,39.70
2018-02-19T10:58:29.769Z,39.38
2018-02-19T10:59:30.046Z,39.46
2018-02-19T11:00:30.568Z,39.27
2018-02-19T11:01:30.987Z,39.01
2018-02-19T11:02:31.467Z,38.72
2018-02-19T11:03:31.941Z,38.73
2018-02-19T11:04:32.417Z,38.57
2018-02-19T11:05:44.276Z,38.31
2018-02-19T11:06:33.368Z,38.15
2018-02-19T11:08:34.319Z,37.93
2018-02-19T11:09:34.797Z,37.84
2018-02-19T11:11:35.747Z,37.49
2018-02-19T11:12:36.221Z,37.26
2018-02-19T11:13:36.698Z,37.36
2018-02-19T11:14:37.175Z,37.10
2018-02-19T11:15:37.650Z,37.08
2018-02-19T11:16:38.178Z,36.85
2018-02-19T11:17:38.602Z,36.79
2018-02-19T11:18:39.079Z,36.72
2018-02-19T11:20:40.032Z,36.43
2018-02-19T11:21:40.558Z,36.54
2018-02-19T11:22:40.984Z,36.27
2018-02-19T11:23:41.459Z,36.35
2018-02-19T11:24:41.929Z,36.28
2018-02-19T11:26:42.936Z,36.22
2018-02-19T11:27:43.360Z,36.02
2018-02-19T11:28:43.835Z,35.98
2018-02-19T11:29:44.310Z,35.89
2018-02-19T11:30:44.785Z,35.85
2018-02-19T11:31:45.308Z,35.82
2018-02-19T11:32:45.736Z,35.86
2018-02-19T11:33:46.206Z,35.99
2018-02-19T11:34:46.681Z,35.75
2018-02-19T11:35:47.152Z,35.75
2018-02-19T11:36:47.627Z,35.89
2018-02-19T11:38:55.316Z,35.95
2018-02-19T11:39:49.044Z,36.21
2018-02-19T11:40:49.512Z,36.14
2018-02-19T11:41:49.991Z,36.30
2018-02-19T11:42:50.464Z,36.46
2018-02-19T11:43:50.930Z,36.76
2018-02-19T11:44:51.406Z,36.92
2018-02-19T11:45:51.879Z,37.11
2018-02-19T11:46:52.352Z,37.37
2018-02-19T11:47:52.820Z,37.63
2018-02-19T11:48:53.294Z,37.92
2018-02-19T11:49:53.766Z,38.11
2018-02-19T11:50:54.239Z,38.07
2018-02-19T11:51:54.761Z,38.26
2018-02-19T11:52:55.201Z,38.51
2018-02-19T11:53:55.656Z,38.71
2018-02-19T11:54:56.121Z,38.90
2018-02-19T11:55:56.597Z,39.05
2018-02-19T11:56:57.120Z,39.44
2018-02-19T11:57:57.544Z,39.67
2018-02-19T11:58:58.017Z,39.47
2018-02-19T11:59:58.522Z,39.69
2018-02-19T12:00:58.957Z,39.85
2018-02-19T12:01:59.488Z,40.07
2018-02-19T12:02:59.907Z,40.10
2018-02-19T12:04:00.377Z,40.16
2018-02-19T12:05:00.850Z,40.32
2018-02-19T12:06:01.352Z,40.48
2018-02-19T12:07:01.799Z,40.40
2018-02-19T12:08:02.271Z,40.73
2018-02-19T12:09:02.744Z,40.52
2018-02-19T12:10:03.219Z,41.27
2018-02-19T12:11:03.687Z,40.94
2018-02-19T12:12:04.166Z,41.23
2018-02-19T12:13:04.639Z,41.19
2018-02-19T12:14:05.114Z,41.87
2018-02-19T12:15:05.588Z,41.96
2018-02-19T12:16:06.060Z,41.92
2018-02-19T12:17:06.536Z,41.92
2018-02-19T12:18:07.006Z,42.24
2018-02-19T12:19:07.487Z,42.43
2018-02-19T12:20:07.961Z,42.55
2018-02-19T12:21:08.437Z,42.61
2018-02-19T12:22:08.906Z,42.64
2018-02-19T12:23:09.384Z,42.60
2018-02-19T12:24:09.860Z,43.12
2018-02-19T12:25:10.341Z,43.11
2018-02-19T12:26:10.812Z,43.27
2018-02-19T12:27:11.291Z,43.39
2018-02-19T12:28:11.762Z,43.48
2018-02-19T12:29:12.234Z,43.61
2018-02-19T12:30:12.716Z,43.60
2018-02-19T12:31:13.192Z,43.72
2018-02-19T12:32:13.666Z,43.72
2018-02-19T12:33:14.143Z,43.85
2018-02-19T12:35:15.094Z,43.87
2018-02-19T12:36:15.571Z,43.93
2018-02-19T12:37:16.097Z,44.15
2018-02-19T12:39:16.996Z,44.04
2018-02-19T12:40:17.471Z,44.23
2018-02-19T12:41:17.947Z,44.07
2018-02-19T12:42:18.416Z,44.13
2018-02-19T12:43:18.900Z,44.41
2018-02-19T12:44:19.372Z,44.37
2018-02-19T12:46:20.315Z,44.62
2018-02-19T12:47:20.844Z,44.55
2018-02-19T12:48:21.268Z,44.61
2018-02-19T12:49:21.742Z,44.70
2018-02-19T12:50:22.216Z,44.70
2018-02-19T12:51:22.689Z,44.66
2018-02-19T12:52:23.212Z,44.66
2018-02-19T12:53:23.631Z,44.68
2018-02-19T12:55:24.582Z,44.80
2018-02-19T12:56:25.051Z,44.89
2018-02-19T12:57:25.526Z,45.05
2018-02-19T12:58:25.997Z,45.26
2018-02-19T12:59:26.472Z,45.13
2018-02-19T13:01:27.413Z,45.25
2018-02-19T13:02:27.885Z,45.50
2018-02-19T13:03:28.360Z,45.75
2018-02-19T13:04:28.864Z,45.81
2018-02-19T13:05:29.299Z,45.87
2018-02-19T13:06:29.772Z,45.99
2018-02-19T13:07:30.294Z,46.08
2018-02-19T13:08:30.714Z,46.05
2018-02-19T13:09:31.187Z,45.98
2018-02-19T13:10:31.654Z,46.04
2018-02-19T13:11:32.131Z,46.20
2018-02-19T13:12:32.651Z,46.38
2018-02-19T13:13:33.076Z,46.38
2018-02-19T13:14:33.546Z,46.28
2018-02-19T13:15:34.221Z,46.47
2018-02-19T13:18:35.436Z,46.39
2018-02-19T13:19:35.910Z,46.49
2018-02-19T13:20:36.381Z,46.45
2018-02-19T13:21:36.848Z,46.45
2018-02-19T13:23:37.801Z,46.63
2018-02-19T13:24:38.273Z,46.75
2018-02-19T13:25:38.747Z,46.81
2018-02-19T13:26:39.221Z,47.00
2018-02-19T13:27:39.694Z,46.94
2018-02-19T13:28:40.169Z,46.93
2018-02-19T13:29:40.641Z,47.06
2018-02-19T13:30:41.115Z,46.99
2018-02-19T13:31:41.591Z,47.11
2018-02-19T13:32:42.065Z,47.21
2018-02-19T13:33:42.539Z,47.05
2018-02-19T13:34:43.015Z,47.23
2018-02-19T13:35:43.492Z,47.26
2018-02-19T13:36:43.963Z,47.38
2018-02-19T13:37:44.487Z,47.48
2018-02-19T13:38:44.912Z,47.54
2018-02-19T13:39:45.388Z,47.41
2018-02-19T13:40:45.858Z,47.47
2018-02-19T13:41:46.339Z,47.62
2018-02-19T13:42:46.810Z,47.62
2018-02-19T13:43:47.292Z,47.65
2018-02-19T13:44:47.772Z,47.49
2018-02-19T13:45:48.243Z,47.77
2018-02-19T13:46:48.717Z,47.74
2018-02-19T13:47:49.194Z,47.77
2018-02-19T13:48:49.670Z,47.61
2018-02-19T13:49:50.139Z,47.51
2018-02-19T13:50:50.621Z,47.54
2018-02-19T13:51:51.096Z,47.51
2018-02-19T13:52:51.623Z,47.57
2018-02-19T13:53:52.042Z,47.82
2018-02-19T13:54:52.525Z,47.50
2018-02-19T13:55:53.000Z,47.53